createdAt,value
2018-09-30T00:00:49.072Z,0
2018-09-30T00:01:53.964Z,0
2018-09-30T00:02:59.118Z,0
2018-09-30T00:04:04.799Z,0
2018-09-30T00:05:10.231Z,0
2018-09-30T00:06:15.479Z,0
2018-09-30T00:07:20.796Z,0
2018-09-30T00:08:25.987Z,0
2018-09-30T00:09:31.844Z,0
2018-09-30T00:10:36.704Z,0
2018-09-30T00:11:41.855Z,0
2018-09-30T00:12:46.974Z,0
2018-09-30T00:13:52.127Z,0
2018-09-30T00:14:57.269Z,0
2018-09-30T00:16:02.484Z,0
2018-09-30T00:17:07.073Z,0
2018-09-30T00:18:11.950Z,0
2018-09-30T00:19:17.794Z,0
2018-09-30T00:20:22.963Z,0
2018-09-30T00:21:28.365Z,0
2018-09-30T00:22:33.011Z,0
2018-09-30T00:23:38.442Z,0
2018-09-30T00:24:44.137Z,0
2018-09-30T00:25:49.353Z,0
2018-09-30T00:26:54.781Z,0
2018-09-30T00:28:00.171Z,0
2018-09-30T00:29:05.325Z,0
2018-09-30T00:30:10.767Z,0
2018-09-30T00:31:16.543Z,0
2018-09-30T00:32:22.031Z,0
2018-09-30T00:33:27.749Z,0
2018-09-30T00:34:32.652Z,0
2018-09-30T00:35:37.536Z,0
2018-09-30T00:36:42.646Z,0
2018-09-30T00:37:48.099Z,0
2018-09-30T00:38:53.291Z,0
2018-09-30T00:39:58.797Z,0
2018-09-30T00:41:03.452Z,0
2018-09-30T00:42:08.412Z,0
2018-09-30T00:43:14.095Z,0
2018-09-30T00:44:19.033Z,0
2018-09-30T00:45:24.227Z,0
2018-09-30T00:46:30.305Z,0
2018-09-30T00:47:35.169Z,0
2018-09-30T00:48:40.905Z,0
2018-09-30T00:49:46.068Z,0
2018-09-30T00:50:51.543Z,0
2018-09-30T00:51:56.886Z,0
2018-09-30T00:53:02.037Z,0
2018-09-30T00:54:07.523Z,0
2018-09-30T00:55:13.035Z,0
2018-09-30T00:56:18.185Z,0
2018-09-30T00:57:23.420Z,0
2018-09-30T00:58:29.249Z,0
2018-09-30T00:59:34.687Z,0
2018-09-30T01:00:39.829Z,0
2018-09-30T01:01:45.308Z,0
2018-09-30T01:02:50.475Z,0
2018-09-30T01:03:56.153Z,0
2018-09-30T01:05:01.664Z,0
2018-09-30T01:06:06.265Z,0
2018-09-30T01:07:11.699Z,0
2018-09-30T01:08:16.685Z,0
2018-09-30T01:09:22.172Z,0
2018-09-30T01:10:41.831Z,0
2018-09-30T01:11:47.281Z,0
2018-09-30T01:12:52.166Z,0
2018-09-30T01:13:57.068Z,0
2018-09-30T01:15:01.652Z,0
2018-09-30T01:16:06.932Z,0
2018-09-30T01:17:12.102Z,0
2018-09-30T01:18:16.705Z,0
2018-09-30T01:19:22.252Z,0
2018-09-30T01:20:27.114Z,0
2018-09-30T01:21:32.795Z,0
2018-09-30T01:22:37.951Z,0
2018-09-30T01:23:43.159Z,0
2018-09-30T01:24:48.265Z,0
2018-09-30T01:25:53.689Z,0
2018-09-30T01:26:58.918Z,0
2018-09-30T01:28:03.493Z,0
2018-09-30T01:29:08.398Z,0
2018-09-30T01:30:13.879Z,0
2018-09-30T01:31:19.179Z,0
2018-09-30T01:32:24.033Z,0
2018-09-30T01:33:29.970Z,0
2018-09-30T01:34:35.206Z,0
2018-09-30T01:35:40.350Z,0
2018-09-30T01:36:46.032Z,0
2018-09-30T01:37:51.277Z,0
2018-09-30T01:38:56.504Z,0
2018-09-30T01:40:02.290Z,0
2018-09-30T01:41:06.871Z,0
2018-09-30T01:42:12.344Z,0
2018-09-30T01:43:17.885Z,0
2018-09-30T01:44:23.324Z,0
2018-09-30T01:45:28.993Z,0
2018-09-30T01:46:33.606Z,0
2018-09-30T01:47:39.058Z,0
2018-09-30T01:48:44.332Z,0
2018-09-30T01:49:49.228Z,0
2018-09-30T01:50:54.394Z,0
2018-09-30T01:51:59.696Z,0
2018-09-30T01:53:04.578Z,0
2018-09-30T01:54:10.050Z,0
2018-09-30T01:55:14.943Z,0
2018-09-30T01:56:20.379Z,0
2018-09-30T01:57:40.872Z,0
2018-09-30T01:58:46.015Z,0
2018-09-30T01:59:51.448Z,0
2018-09-30T02:00:56.867Z,0
2018-09-30T02:02:01.740Z,0
2018-09-30T02:03:06.637Z,0
2018-09-30T02:04:12.085Z,0
2018-09-30T02:05:17.517Z,0
2018-09-30T02:06:23.014Z,0
2018-09-30T02:07:28.000Z,0
2018-09-30T02:08:33.439Z,0
2018-09-30T02:09:38.830Z,0
2018-09-30T02:10:43.687Z,0
2018-09-30T02:11:48.896Z,0
2018-09-30T02:12:54.734Z,0
2018-09-30T02:14:00.169Z,0
2018-09-30T02:15:05.089Z,0
2018-09-30T02:16:10.211Z,0
2018-09-30T02:17:15.715Z,0
2018-09-30T02:18:20.897Z,0
2018-09-30T02:19:26.137Z,0
2018-09-30T02:20:31.602Z,0
2018-09-30T02:21:36.905Z,0
2018-09-30T02:22:42.055Z,0
2018-09-30T02:23:46.928Z,0
2018-09-30T02:24:52.685Z,0
2018-09-30T02:25:57.838Z,0
2018-09-30T02:27:02.578Z,0
2018-09-30T02:28:08.130Z,0
2018-09-30T02:29:13.576Z,0
2018-09-30T02:30:18.556Z,0
2018-09-30T02:31:23.689Z,0
2018-09-30T02:32:28.551Z,0
2018-09-30T02:33:33.790Z,0
2018-09-30T02:34:38.355Z,0
2018-09-30T02:35:43.549Z,0
2018-09-30T02:36:48.910Z,0
2018-09-30T02:37:53.869Z,0
2018-09-30T02:38:58.934Z,0
2018-09-30T02:40:04.383Z,0
2018-09-30T02:41:09.867Z,0
2018-09-30T02:42:14.878Z,0
2018-09-30T02:43:20.383Z,0
2018-09-30T02:44:25.586Z,0
2018-09-30T02:45:31.336Z,0
2018-09-30T02:46:36.194Z,0
2018-09-30T02:47:41.696Z,0
2018-09-30T02:48:46.689Z,0
2018-09-30T02:49:51.807Z,0
2018-09-30T02:50:57.282Z,0
2018-09-30T02:52:02.580Z,0
2018-09-30T02:53:07.842Z,0
2018-09-30T02:54:13.319Z,0
2018-09-30T02:55:18.432Z,0
2018-09-30T02:56:23.304Z,0
2018-09-30T02:57:28.401Z,0
2018-09-30T02:58:33.539Z,0
2018-09-30T02:59:38.415Z,0
2018-09-30T03:00:43.937Z,0
2018-09-30T03:01:49.081Z,0
2018-09-30T03:02:54.514Z,0
2018-09-30T03:03:59.800Z,0
2018-09-30T03:05:04.943Z,0
2018-09-30T03:06:10.042Z,0
2018-09-30T03:07:15.696Z,0
2018-09-30T03:08:21.145Z,0
2018-09-30T03:09:41.232Z,0
2018-09-30T03:10:46.086Z,0
2018-09-30T03:11:51.231Z,0
2018-09-30T03:12:56.835Z,0
2018-09-30T03:14:02.019Z,0
2018-09-30T03:15:06.912Z,0
2018-09-30T03:16:12.528Z,0
2018-09-30T03:17:17.675Z,0
2018-09-30T03:18:22.901Z,0
2018-09-30T03:19:28.541Z,0
2018-09-30T03:20:33.694Z,0
2018-09-30T03:21:39.247Z,0
2018-09-30T03:22:44.802Z,0
2018-09-30T03:23:50.235Z,0
2018-09-30T03:24:56.080Z,0
2018-09-30T03:26:00.409Z,0
2018-09-30T03:27:05.297Z,0
2018-09-30T03:28:09.861Z,0
2018-09-30T03:29:15.011Z,0
2018-09-30T03:30:20.162Z,0
2018-09-30T03:31:26.034Z,0
2018-09-30T03:32:31.485Z,0
2018-09-30T03:33:37.004Z,0
2018-09-30T03:34:42.205Z,0
2018-09-30T03:35:47.382Z,0
2018-09-30T03:36:52.697Z,0
2018-09-30T03:37:57.562Z,0
2018-09-30T03:39:02.466Z,0
2018-09-30T03:40:07.572Z,0
2018-09-30T03:41:13.004Z,0
2018-09-30T03:42:18.443Z,0
2018-09-30T03:43:23.358Z,0
2018-09-30T03:44:28.513Z,0
2018-09-30T03:45:34.228Z,0
2018-09-30T03:46:38.886Z,0
2018-09-30T03:47:44.025Z,0
2018-09-30T03:48:49.138Z,0
2018-09-30T03:49:54.533Z,0
2018-09-30T03:50:59.404Z,0
2018-09-30T03:52:04.306Z,0
2018-09-30T03:53:09.174Z,0
2018-09-30T03:54:14.362Z,0
2018-09-30T03:55:19.902Z,0
2018-09-30T03:56:24.682Z,0
2018-09-30T03:57:30.712Z,0
2018-09-30T03:58:35.863Z,0
2018-09-30T03:59:40.483Z,0
2018-09-30T04:00:46.319Z,0
2018-09-30T04:01:51.777Z,0
2018-09-30T04:02:57.257Z,0
2018-09-30T04:04:02.562Z,0
2018-09-30T04:05:07.436Z,0
2018-09-30T04:06:12.983Z,0
2018-09-30T04:07:18.761Z,0
2018-09-30T04:08:23.674Z,0
2018-09-30T04:09:29.745Z,0
2018-09-30T04:10:34.691Z,0
2018-09-30T04:11:40.127Z,0
2018-09-30T04:12:45.433Z,0
2018-09-30T04:13:50.909Z,0
2018-09-30T04:14:55.841Z,0
2018-09-30T04:16:01.384Z,0
2018-09-30T04:17:06.545Z,0
2018-09-30T04:18:12.601Z,0
2018-09-30T04:19:18.342Z,0
2018-09-30T04:20:22.911Z,0
2018-09-30T04:21:28.851Z,0
2018-09-30T04:22:34.439Z,0
2018-09-30T04:23:39.603Z,0
2018-09-30T04:24:44.741Z,0
2018-09-30T04:25:49.617Z,0
2018-09-30T04:26:55.070Z,0
2018-09-30T04:28:00.991Z,0
2018-09-30T04:29:05.984Z,0
2018-09-30T04:30:11.223Z,0
2018-09-30T04:31:16.522Z,0
2018-09-30T04:32:21.698Z,0
2018-09-30T04:33:27.688Z,0
2018-09-30T04:34:33.146Z,0
2018-09-30T04:35:38.314Z,0
2018-09-30T04:36:44.015Z,0
2018-09-30T04:37:49.213Z,0
2018-09-30T04:38:54.756Z,0
2018-09-30T04:39:59.849Z,0
2018-09-30T04:41:05.287Z,0
2018-09-30T04:42:10.515Z,0
2018-09-30T04:43:15.413Z,0
2018-09-30T04:44:20.416Z,0
2018-09-30T04:45:40.568Z,0
2018-09-30T04:46:45.791Z,0
2018-09-30T04:47:51.069Z,0
2018-09-30T04:48:56.183Z,0
2018-09-30T04:50:01.928Z,0
2018-09-30T04:51:07.100Z,0
2018-09-30T04:52:12.502Z,0
2018-09-30T04:53:18.026Z,0
2018-09-30T04:54:23.508Z,0
2018-09-30T04:55:29.361Z,0
2018-09-30T04:56:34.501Z,0
2018-09-30T04:57:39.838Z,0
2018-09-30T04:58:44.986Z,0
2018-09-30T04:59:50.451Z,0
2018-09-30T05:00:56.319Z,0
2018-09-30T05:02:01.746Z,0
2018-09-30T05:03:06.341Z,0
2018-09-30T05:04:12.156Z,0
2018-09-30T05:05:17.622Z,0
2018-09-30T05:06:22.258Z,0
2018-09-30T05:07:42.304Z,0
2018-09-30T05:08:47.472Z,0
2018-09-30T05:09:52.903Z,0
2018-09-30T05:10:57.767Z,0
2018-09-30T05:12:02.164Z,0
2018-09-30T05:13:07.601Z,0
2018-09-30T05:14:12.751Z,0
2018-09-30T05:15:17.347Z,0
2018-09-30T05:16:23.405Z,0
2018-09-30T05:17:28.759Z,0
2018-09-30T05:18:34.394Z,0
2018-09-30T05:19:39.550Z,0
2018-09-30T05:20:44.989Z,0
2018-09-30T05:21:50.820Z,0
2018-09-30T05:22:55.973Z,0
2018-09-30T05:24:01.197Z,0
2018-09-30T05:25:05.576Z,0
2018-09-30T05:26:10.727Z,0
2018-09-30T05:27:15.923Z,0
2018-09-30T05:28:20.763Z,0
2018-09-30T05:29:25.944Z,0
2018-09-30T05:30:31.542Z,0
2018-09-30T05:31:36.996Z,0
2018-09-30T05:32:42.142Z,0
2018-09-30T05:33:47.970Z,0
2018-09-30T05:34:53.395Z,0
2018-09-30T05:35:58.914Z,0
2018-09-30T05:37:04.132Z,0
2018-09-30T05:38:09.182Z,0
2018-09-30T05:39:14.644Z,0
2018-09-30T05:40:20.384Z,0
2018-09-30T05:41:25.836Z,0
2018-09-30T05:42:31.743Z,6
2018-09-30T05:43:37.170Z,6
2018-09-30T05:44:42.322Z,6
2018-09-30T05:45:47.712Z,6
2018-09-30T05:46:52.682Z,6
2018-09-30T05:47:57.940Z,6
2018-09-30T05:49:02.816Z,6
2018-09-30T05:50:07.385Z,6
2018-09-30T05:51:12.822Z,6
2018-09-30T05:52:17.950Z,6
2018-09-30T05:53:23.181Z,6
2018-09-30T05:54:28.843Z,6
2018-09-30T05:55:34.067Z,24
2018-09-30T05:56:39.225Z,24
2018-09-30T05:57:45.599Z,24
2018-09-30T05:58:51.050Z,24
2018-09-30T05:59:56.484Z,24
2018-09-30T06:01:02.065Z,24
2018-09-30T06:02:06.651Z,24
2018-09-30T06:03:12.175Z,24
2018-09-30T06:04:18.025Z,24
2018-09-30T06:05:23.183Z,24
2018-09-30T06:06:28.929Z,24
2018-09-30T06:07:34.104Z,24
2018-09-30T06:08:39.280Z,24
2018-09-30T06:09:44.744Z,24
2018-09-30T06:10:50.168Z,24
2018-09-30T06:11:55.051Z,40
2018-09-30T06:13:00.347Z,40
2018-09-30T06:14:05.917Z,40
2018-09-30T06:15:11.004Z,40
2018-09-30T06:16:16.438Z,40
2018-09-30T06:17:21.322Z,40
2018-09-30T06:18:26.643Z,40
2018-09-30T06:19:31.828Z,40
2018-09-30T06:20:37.264Z,13
2018-09-30T06:21:42.691Z,31
2018-09-30T06:22:47.855Z,31
2018-09-30T06:23:53.051Z,31
2018-09-30T06:24:58.829Z,31
2018-09-30T06:26:04.021Z,31
2018-09-30T06:27:09.177Z,48
2018-09-30T06:28:14.672Z,48
2018-09-30T06:29:20.141Z,48
2018-09-30T06:31:46.041Z,48
2018-09-30T06:32:51.503Z,48
2018-09-30T06:33:56.897Z,48
2018-09-30T06:35:01.818Z,48
2018-09-30T06:36:06.969Z,48
2018-09-30T06:37:12.768Z,48
2018-09-30T06:38:18.185Z,48
2018-09-30T06:39:23.063Z,48
2018-09-30T06:40:29.062Z,48
2018-09-30T06:41:34.090Z,64
2018-09-30T06:42:39.761Z,64
2018-09-30T06:43:45.120Z,64
2018-09-30T06:44:49.812Z,64
2018-09-30T06:45:55.572Z,64
2018-09-30T06:47:00.202Z,37
2018-09-30T06:48:05.119Z,37
2018-09-30T06:49:10.385Z,37
2018-09-30T06:50:15.851Z,37
2018-09-30T06:51:21.064Z,37
2018-09-30T06:52:26.462Z,37
2018-09-30T06:53:31.044Z,37
2018-09-30T06:54:36.381Z,37
2018-09-30T06:55:41.801Z,37
2018-09-30T06:56:46.761Z,37
2018-09-30T06:57:52.667Z,55
2018-09-30T06:58:57.841Z,55
2018-09-30T07:00:03.032Z,55
2018-09-30T07:01:08.756Z,55
2018-09-30T07:02:14.197Z,55
2018-09-30T07:03:19.432Z,55
2018-09-30T07:04:24.989Z,55
2018-09-30T07:05:29.855Z,55
2018-09-30T07:06:35.572Z,55
2018-09-30T07:07:40.733Z,55
2018-09-30T07:08:45.340Z,55
2018-09-30T07:09:50.896Z,55
2018-09-30T07:10:56.201Z,55
2018-09-30T07:12:02.180Z,55
2018-09-30T07:13:07.607Z,55
2018-09-30T07:14:13.073Z,72
2018-09-30T07:15:18.014Z,72
2018-09-30T07:16:23.696Z,72
2018-09-30T07:17:28.606Z,72
2018-09-30T07:18:34.316Z,72
2018-09-30T07:19:39.192Z,72
2018-09-30T07:20:44.663Z,72
2018-09-30T07:21:50.657Z,72
2018-09-30T07:22:56.169Z,72
2018-09-30T07:24:01.066Z,72
2018-09-30T07:25:06.507Z,72
2018-09-30T07:26:11.442Z,72
2018-09-30T07:27:16.307Z,72
2018-09-30T07:28:21.812Z,72
2018-09-30T07:29:27.259Z,72
2018-09-30T07:30:33.128Z,72
2018-09-30T07:31:38.613Z,72
2018-09-30T07:32:43.874Z,72
2018-09-30T07:33:49.472Z,72
2018-09-30T07:34:54.868Z,72
2018-09-30T07:36:00.037Z,72
2018-09-30T07:37:06.235Z,72
2018-09-30T07:38:11.403Z,72
2018-09-30T07:39:16.607Z,72
2018-09-30T07:40:22.350Z,72
2018-09-30T07:41:27.493Z,72
2018-09-30T07:42:32.955Z,72
2018-09-30T07:43:38.387Z,72
2018-09-30T07:44:43.538Z,88
2018-09-30T07:45:49.258Z,72
2018-09-30T07:46:55.054Z,72
2018-09-30T07:48:00.248Z,72
2018-09-30T07:49:06.137Z,72
2018-09-30T07:50:11.627Z,88
2018-09-30T07:51:16.773Z,88
2018-09-30T07:52:22.273Z,88
2018-09-30T07:53:27.850Z,88
2018-09-30T07:54:33.424Z,88
2018-09-30T07:55:38.577Z,88
2018-09-30T07:56:44.091Z,88
2018-09-30T07:57:49.873Z,88
2018-09-30T07:58:54.806Z,88
2018-09-30T07:59:59.769Z,88
2018-09-30T08:01:05.370Z,88
2018-09-30T08:02:10.510Z,88
2018-09-30T08:03:15.660Z,62
2018-09-30T08:04:21.340Z,62
2018-09-30T08:05:26.225Z,62
2018-09-30T08:06:32.690Z,62
2018-09-30T08:07:37.989Z,62
2018-09-30T08:08:43.195Z,62
2018-09-30T08:09:49.041Z,62
2018-09-30T08:10:54.183Z,62
2018-09-30T08:11:58.795Z,62
2018-09-30T08:13:03.376Z,62
2018-09-30T08:14:08.368Z,62
2018-09-30T08:15:13.338Z,62
2018-09-30T08:16:18.821Z,62
2018-09-30T08:17:23.465Z,62
2018-09-30T08:18:29.545Z,62
2018-09-30T08:19:34.816Z,62
2018-09-30T08:20:39.996Z,62
2018-09-30T08:21:45.836Z,62
2018-09-30T08:22:50.703Z,62
2018-09-30T08:23:56.078Z,62
2018-09-30T08:25:01.650Z,62
2018-09-30T08:26:06.242Z,62
2018-09-30T08:27:11.394Z,62
2018-09-30T08:28:16.590Z,62
2018-09-30T08:29:21.444Z,62
2018-09-30T08:30:41.693Z,62
2018-09-30T08:31:47.037Z,62
2018-09-30T08:32:51.955Z,62
2018-09-30T08:33:57.521Z,62
2018-09-30T08:35:02.397Z,62
2018-09-30T08:36:07.912Z,62
2018-09-30T08:37:13.389Z,62
2018-09-30T08:38:18.538Z,79
2018-09-30T08:39:23.452Z,62
2018-09-30T08:40:28.744Z,79
2018-09-30T08:41:34.263Z,79
2018-09-30T08:42:39.940Z,79
2018-09-30T08:43:45.597Z,79
2018-09-30T08:44:51.262Z,79
2018-09-30T08:45:56.647Z,79
2018-09-30T08:47:01.581Z,79
2018-09-30T08:48:06.477Z,79
2018-09-30T08:49:11.848Z,79
2018-09-30T08:50:17.533Z,79
2018-09-30T08:51:22.407Z,79
2018-09-30T08:52:28.007Z,79
2018-09-30T08:53:33.207Z,79
2018-09-30T08:54:38.811Z,79
2018-09-30T08:55:44.120Z,79
2018-09-30T08:56:49.158Z,79
2018-09-30T08:57:54.576Z,79
2018-09-30T08:58:58.891Z,79
2018-09-30T09:00:03.471Z,79
2018-09-30T09:01:08.356Z,79
2018-09-30T09:02:13.792Z,79
2018-09-30T09:03:18.993Z,79
2018-09-30T09:04:24.118Z,79
2018-09-30T09:05:28.962Z,79
2018-09-30T09:06:34.839Z,79
2018-09-30T09:07:40.331Z,79
2018-09-30T09:08:45.500Z,79
2018-09-30T09:09:50.840Z,79
2018-09-30T09:10:56.241Z,79
2018-09-30T09:12:01.714Z,79
2018-09-30T09:13:06.931Z,79
2018-09-30T09:14:12.402Z,79
2018-09-30T09:15:17.902Z,79
2018-09-30T09:16:23.376Z,79
2018-09-30T09:17:28.574Z,79
2018-09-30T09:18:34.654Z,79
2018-09-30T09:19:39.720Z,79
2018-09-30T09:20:44.860Z,79
2018-09-30T09:21:50.540Z,79
2018-09-30T09:22:56.077Z,79
2018-09-30T09:24:01.253Z,79
2018-09-30T09:25:06.832Z,79
2018-09-30T09:26:11.998Z,79
2018-09-30T09:27:17.206Z,79
2018-09-30T09:28:22.796Z,79
2018-09-30T09:29:28.221Z,79
2018-09-30T09:30:33.248Z,79
2018-09-30T09:31:38.594Z,79
2018-09-30T09:32:44.286Z,79
2018-09-30T09:33:50.114Z,79
2018-09-30T09:34:54.829Z,79
2018-09-30T09:35:59.475Z,79
2018-09-30T09:37:04.898Z,79
2018-09-30T09:38:10.068Z,79
2018-09-30T09:39:15.212Z,79
2018-09-30T09:40:20.803Z,79
2018-09-30T09:41:26.299Z,79
2018-09-30T09:42:32.072Z,79
2018-09-30T09:43:37.223Z,79
2018-09-30T09:44:42.403Z,79
2018-09-30T09:45:48.391Z,79
2018-09-30T09:46:53.648Z,79
2018-09-30T09:47:59.210Z,79
2018-09-30T09:49:04.624Z,79
2018-09-30T09:50:09.768Z,79
2018-09-30T09:51:15.198Z,79
2018-09-30T09:52:21.259Z,79
2018-09-30T09:53:26.487Z,79
2018-09-30T09:54:31.398Z,79
2018-09-30T09:55:36.849Z,62
2018-09-30T09:56:42.288Z,62
2018-09-30T09:57:48.324Z,62
2018-09-30T09:58:53.647Z,62
2018-09-30T09:59:59.353Z,62
2018-09-30T10:01:04.645Z,62
2018-09-30T10:02:10.116Z,62
2018-09-30T10:03:15.311Z,62
2018-09-30T10:04:21.141Z,62
2018-09-30T10:05:25.743Z,62
2018-09-30T10:06:31.749Z,62
2018-09-30T10:07:36.992Z,62
2018-09-30T10:08:42.433Z,62
2018-09-30T10:09:48.056Z,62
2018-09-30T10:10:53.301Z,62
2018-09-30T10:11:58.191Z,62
2018-09-30T10:13:04.136Z,62
2018-09-30T10:14:09.031Z,62
2018-09-30T10:15:14.168Z,62
2018-09-30T10:16:19.896Z,62
2018-09-30T10:17:25.441Z,62
2018-09-30T10:18:31.272Z,62
2018-09-30T10:19:37.081Z,62
2018-09-30T10:20:41.882Z,62
2018-09-30T10:21:47.331Z,62
2018-09-30T10:22:52.854Z,62
2018-09-30T10:23:57.758Z,62
2018-09-30T10:25:03.504Z,62
2018-09-30T10:26:07.824Z,62
2018-09-30T10:27:12.781Z,62
2018-09-30T10:28:18.081Z,62
2018-09-30T10:29:23.299Z,62
2018-09-30T10:30:28.706Z,62
2018-09-30T10:31:34.221Z,62
2018-09-30T10:32:39.381Z,79
2018-09-30T10:33:44.921Z,79
2018-09-30T10:34:50.078Z,79
2018-09-30T10:35:55.307Z,79
2018-09-30T10:37:01.183Z,79
2018-09-30T10:38:05.797Z,79
2018-09-30T10:39:12.114Z,79
2018-09-30T10:40:18.870Z,79
2018-09-30T10:41:24.298Z,79
2018-09-30T10:42:29.602Z,79
2018-09-30T10:43:34.756Z,79
2018-09-30T10:44:39.900Z,79
2018-09-30T10:45:45.628Z,79
2018-09-30T10:46:50.553Z,79
2018-09-30T10:47:56.011Z,79
2018-09-30T10:49:01.153Z,79
2018-09-30T10:50:05.774Z,79
2018-09-30T10:51:10.929Z,79
2018-09-30T10:52:16.613Z,79
2018-09-30T10:53:21.790Z,79
2018-09-30T10:54:27.343Z,79
2018-09-30T10:55:32.209Z,79
2018-09-30T10:56:37.363Z,79
2018-09-30T10:57:42.768Z,79
2018-09-30T10:58:47.922Z,79
2018-09-30T10:59:53.348Z,79
2018-09-30T11:00:59.129Z,79
2018-09-30T11:02:04.451Z,79
2018-09-30T11:03:09.462Z,79
2018-09-30T11:04:15.013Z,95
2018-09-30T11:05:20.170Z,95
2018-09-30T11:06:40.603Z,95
2018-09-30T11:07:45.743Z,95
2018-09-30T11:08:50.899Z,95
2018-09-30T11:09:56.807Z,95
2018-09-30T11:11:02.309Z,95
2018-09-30T11:12:07.186Z,95
2018-09-30T11:13:12.685Z,95
2018-09-30T11:14:17.632Z,95
2018-09-30T11:15:22.615Z,95
2018-09-30T11:16:28.415Z,95
2018-09-30T11:17:33.142Z,95
2018-09-30T11:18:38.328Z,95
2018-09-30T11:19:43.473Z,95
2018-09-30T11:20:48.733Z,95
2018-09-30T11:21:54.918Z,95
2018-09-30T11:22:59.504Z,95
2018-09-30T11:24:04.958Z,68
2018-09-30T11:25:10.157Z,68
2018-09-30T11:26:15.308Z,68
2018-09-30T11:27:20.790Z,68
2018-09-30T11:28:26.342Z,68
2018-09-30T11:29:31.493Z,68
2018-09-30T11:30:37.100Z,68
2018-09-30T11:31:42.477Z,68
2018-09-30T11:32:47.661Z,68
2018-09-30T11:33:53.466Z,68
2018-09-30T11:34:58.700Z,68
2018-09-30T11:36:03.868Z,68
2018-09-30T11:37:09.699Z,68
2018-09-30T11:38:14.861Z,68
2018-09-30T11:39:19.447Z,68
2018-09-30T11:40:24.895Z,68
2018-09-30T11:41:30.344Z,68
2018-09-30T11:42:36.063Z,68
2018-09-30T11:43:41.272Z,68
2018-09-30T11:44:45.932Z,68
2018-09-30T11:45:52.118Z,68
2018-09-30T11:46:56.760Z,68
2018-09-30T11:48:01.614Z,68
2018-09-30T11:49:06.550Z,95
2018-09-30T11:50:11.516Z,95
2018-09-30T11:51:16.998Z,95
2018-09-30T11:52:22.255Z,95
2018-09-30T11:53:27.700Z,95
2018-09-30T11:54:33.253Z,95
2018-09-30T11:55:38.402Z,95
2018-09-30T11:56:43.541Z,95
2018-09-30T11:57:49.415Z,95
2018-09-30T11:58:54.011Z,95
2018-09-30T11:59:58.884Z,95
2018-09-30T12:01:04.986Z,95
2018-09-30T12:02:10.337Z,95
2018-09-30T12:03:15.304Z,95
2018-09-30T12:04:20.848Z,95
2018-09-30T12:05:26.001Z,95
2018-09-30T12:06:31.320Z,95
2018-09-30T12:07:36.246Z,95
2018-09-30T12:08:41.147Z,95
2018-09-30T12:09:46.979Z,95
2018-09-30T12:10:52.477Z,95
2018-09-30T12:11:57.428Z,95
2018-09-30T12:13:02.784Z,95
2018-09-30T12:14:07.651Z,95
2018-09-30T12:15:12.806Z,95
2018-09-30T12:16:17.920Z,95
2018-09-30T12:17:22.919Z,95
2018-09-30T12:18:28.187Z,95
2018-09-30T12:19:33.331Z,95
2018-09-30T12:20:38.492Z,95
2018-09-30T12:21:43.947Z,95
2018-09-30T12:22:49.379Z,95
2018-09-30T12:23:54.498Z,95
2018-09-30T12:25:00.336Z,95
2018-09-30T12:26:05.496Z,95
2018-09-30T12:27:10.397Z,95
2018-09-30T12:28:16.202Z,95
2018-09-30T12:29:21.072Z,95
2018-09-30T12:30:41.237Z,95
2018-09-30T12:31:46.666Z,95
2018-09-30T12:32:52.104Z,95
2018-09-30T12:33:57.785Z,95
2018-09-30T12:35:02.380Z,95
2018-09-30T12:36:07.270Z,95
2018-09-30T12:37:13.039Z,95
2018-09-30T12:38:18.472Z,95
2018-09-30T12:39:24.216Z,95
2018-09-30T12:40:44.162Z,95
2018-09-30T12:41:48.758Z,95
2018-09-30T12:42:54.554Z,95
2018-09-30T12:43:59.429Z,95
2018-09-30T12:45:04.291Z,95
2018-09-30T12:46:09.728Z,79
2018-09-30T12:47:15.207Z,79
2018-09-30T12:48:20.459Z,79
2018-09-30T12:49:25.762Z,79
2018-09-30T12:50:30.050Z,79
2018-09-30T12:51:35.421Z,79
2018-09-30T12:52:40.573Z,79
2018-09-30T12:53:45.466Z,79
2018-09-30T12:54:51.148Z,79
2018-09-30T12:55:56.325Z,79
2018-09-30T12:57:01.821Z,79
2018-09-30T12:58:07.694Z,79
2018-09-30T12:59:13.194Z,79
2018-09-30T13:00:18.837Z,79
2018-09-30T13:01:24.664Z,62
2018-09-30T13:02:30.122Z,62
2018-09-30T13:03:35.666Z,62
2018-09-30T13:04:40.860Z,62
2018-09-30T13:05:45.911Z,62
2018-09-30T13:06:52.161Z,62
2018-09-30T13:07:57.627Z,62
2018-09-30T13:09:02.504Z,62
2018-09-30T13:10:06.774Z,62
2018-09-30T13:11:11.935Z,62
2018-09-30T13:12:17.371Z,62
2018-09-30T13:13:22.642Z,62
2018-09-30T13:14:27.551Z,62
2018-09-30T13:15:33.480Z,62
2018-09-30T13:16:38.929Z,62
2018-09-30T13:17:44.109Z,88
2018-09-30T13:18:49.297Z,88
2018-09-30T13:19:54.172Z,88
2018-09-30T13:20:59.865Z,88
2018-09-30T13:22:05.504Z,88
2018-09-30T13:23:10.411Z,72
2018-09-30T13:24:15.891Z,72
2018-09-30T13:25:21.010Z,72
2018-09-30T13:26:26.156Z,72
2018-09-30T13:27:31.956Z,72
2018-09-30T13:28:37.105Z,72
2018-09-30T13:29:42.737Z,72
2018-09-30T13:30:48.562Z,72
2018-09-30T13:31:53.999Z,72
2018-09-30T13:32:59.141Z,72
2018-09-30T13:34:05.219Z,72
2018-09-30T13:35:10.133Z,72
2018-09-30T13:36:14.710Z,72
2018-09-30T13:37:20.600Z,72
2018-09-30T13:38:26.106Z,72
2018-09-30T13:39:31.724Z,72
2018-09-30T13:40:37.546Z,72
2018-09-30T13:41:43.289Z,72
2018-09-30T13:42:48.578Z,72
2018-09-30T13:43:54.072Z,72
2018-09-30T13:44:59.512Z,72
2018-09-30T13:46:04.859Z,72
2018-09-30T13:47:09.830Z,72
2018-09-30T13:48:14.696Z,72
2018-09-30T13:49:20.127Z,72
2018-09-30T13:50:25.422Z,72
2018-09-30T13:51:31.115Z,72
2018-09-30T13:52:36.589Z,72
2018-09-30T13:53:42.045Z,72
2018-09-30T13:54:47.621Z,72
2018-09-30T13:55:52.615Z,72
2018-09-30T13:56:58.043Z,72
2018-09-30T13:58:02.604Z,72
2018-09-30T13:59:07.762Z,72
2018-09-30T14:00:12.703Z,72
2018-09-30T14:01:18.106Z,72
2018-09-30T14:02:22.993Z,72
2018-09-30T14:03:28.650Z,72
2018-09-30T14:04:33.272Z,72
2018-09-30T14:05:38.145Z,72
2018-09-30T14:06:43.372Z,72
2018-09-30T14:07:48.335Z,72
2018-09-30T14:08:53.209Z,72
2018-09-30T14:09:58.634Z,72
2018-09-30T14:11:03.210Z,72
2018-09-30T14:12:08.711Z,72
2018-09-30T14:13:14.652Z,88
2018-09-30T14:14:20.120Z,88
2018-09-30T14:15:40.412Z,88
2018-09-30T14:16:45.870Z,88
2018-09-30T14:17:51.033Z,62
2018-09-30T14:18:56.325Z,62
2018-09-30T14:20:01.766Z,62
2018-09-30T14:21:06.637Z,62
2018-09-30T14:22:12.153Z,62
2018-09-30T14:23:17.775Z,62
2018-09-30T14:24:22.915Z,62
2018-09-30T14:25:28.655Z,62
2018-09-30T14:26:34.085Z,79
2018-09-30T14:27:39.260Z,79
2018-09-30T14:28:44.396Z,79
2018-09-30T14:29:49.260Z,79
2018-09-30T14:30:54.817Z,79
2018-09-30T14:32:00.274Z,79
2018-09-30T14:33:05.707Z,79
2018-09-30T14:34:10.945Z,79
2018-09-30T14:35:16.040Z,79
2018-09-30T14:36:21.570Z,79
2018-09-30T14:37:41.964Z,79
2018-09-30T14:38:47.105Z,95
2018-09-30T14:39:52.335Z,95
2018-09-30T14:40:57.548Z,95
2018-09-30T14:42:02.135Z,95
2018-09-30T14:43:07.252Z,95
2018-09-30T14:44:12.798Z,95
2018-09-30T14:45:17.970Z,95
2018-09-30T14:46:23.513Z,95
2018-09-30T14:47:28.459Z,68
2018-09-30T14:48:34.581Z,86
2018-09-30T14:49:39.595Z,86
2018-09-30T14:50:44.188Z,86
2018-09-30T14:51:49.700Z,86
2018-09-30T14:52:55.204Z,103
2018-09-30T14:54:00.223Z,103
2018-09-30T14:55:06.075Z,103
2018-09-30T14:56:11.536Z,103
2018-09-30T14:57:16.674Z,119
2018-09-30T14:58:22.341Z,119
2018-09-30T14:59:27.809Z,92
2018-09-30T15:00:33.372Z,92
2018-09-30T15:01:38.538Z,92
2018-09-30T15:02:43.409Z,92
2018-09-30T15:03:49.338Z,110
2018-09-30T15:04:54.485Z,110
2018-09-30T15:05:59.483Z,110
2018-09-30T15:07:04.071Z,110
2018-09-30T15:08:08.676Z,110
2018-09-30T15:09:13.540Z,127
2018-09-30T15:10:19.122Z,127
2018-09-30T15:11:24.118Z,127
2018-09-30T15:12:29.179Z,127
2018-09-30T15:13:34.354Z,127
2018-09-30T15:14:39.221Z,110
2018-09-30T15:15:45.052Z,110
2018-09-30T15:16:49.957Z,110
2018-09-30T15:17:55.213Z,110
2018-09-30T15:19:00.373Z,110
2018-09-30T15:20:05.553Z,110
2018-09-30T15:21:11.095Z,110
2018-09-30T15:22:15.924Z,110
2018-09-30T15:23:21.105Z,92
2018-09-30T15:24:27.156Z,92
2018-09-30T15:25:32.593Z,92
2018-09-30T15:26:38.060Z,92
2018-09-30T15:27:43.443Z,92
2018-09-30T15:28:48.610Z,92
2018-09-30T15:29:53.523Z,92
2018-09-30T15:30:59.244Z,92
2018-09-30T15:32:04.386Z,92
2018-09-30T15:33:10.091Z,92
2018-09-30T15:34:15.807Z,92
2018-09-30T15:35:20.956Z,92
2018-09-30T15:36:27.087Z,110
2018-09-30T15:37:32.261Z,110
2018-09-30T15:38:37.404Z,110
2018-09-30T15:39:43.436Z,110
2018-09-30T15:40:48.598Z,110
2018-09-30T15:41:54.031Z,92
2018-09-30T15:43:00.304Z,92
2018-09-30T15:44:06.113Z,103
2018-09-30T15:45:11.344Z,103
2018-09-30T15:46:17.022Z,86
2018-09-30T15:47:22.718Z,86